Time;durP1;ratioP1;P1;durP2;ratioP2;P2;SDS_P1;SDS_P2;PMS_P1;PMS_P2;Temp;Humidity;BMP_temperature;BMP_pressure;BME280_temperature;BME280_humidity;BME280_pressure;Samples;Min_cycle;Max_cycle;Signal;HPM_P1;HPM_P2
2024/01/27 00:01:57;;;;;;;10.90;1.95;;;;;;;;;;5019789;28;20127;-77
2024/01/27 00:04:23;;;;;;;9.07;1.55;;;;;;;;;;5022719;28;20061;-75
2024/01/27 00:06:49;;;;;;;3.08;1.48;;;;;;;;;;5012456;28;20026;-75
2024/01/27 00:09:15;;;;;;;2.85;2.00;;;;;;;;;;5011643;28;20044;-76
2024/01/27 00:11:41;;;;;;;5.43;2.38;;;;;;;;;;5022294;28;20065;-75
2024/01/27 00:14:07;;;;;;;13.02;2.08;;;;;;;;;;5009246;28;20068;-75
2024/01/27 00:16:33;;;;;;;3.25;2.05;;;;;;;;;;5011062;28;20025;-76
2024/01/27 00:18:59;;;;;;;6.38;3.40;;;;;;;;;;5012447;28;20483;-77
2024/01/27 00:21:24;;;;;;;4.97;2.53;;;;;;;;;;5015257;28;20021;-75
2024/01/27 00:23:50;;;;;;;2.85;2.30;;;;;;;;;;5015219;28;20056;-76
2024/01/27 00:26:17;;;;;;;5.95;2.65;;;;;;;;;;5010499;28;20120;-75
2024/01/27 00:28:43;;;;;;;5.63;1.90;;;;;;;;;;5014823;28;20029;-77
2024/01/27 00:31:09;;;;;;;3.95;2.13;;;;;;;;;;5024446;28;20026;-76
2024/01/27 00:33:36;;;;;;;6.43;2.17;;;;;;;;;;5014555;28;20087;-75
2024/01/27 00:36:02;;;;;;;4.38;1.67;;;;;;;;;;5005464;28;20609;-76
2024/01/27 00:38:28;;;;;;;3.35;1.65;;;;;;;;;;5004538;28;20566;-75
2024/01/27 00:40:54;;;;;;;2.85;1.30;;;;;;;;;;5011050;28;20116;-75
2024/01/27 00:43:20;;;;;;;3.60;1.38;;;;;;;;;;5016276;28;20064;-75
2024/01/27 00:45:46;;;;;;;9.80;1.60;;;;;;;;;;5018750;28;20037;-74
2024/01/27 00:48:12;;;;;;;4.30;1.63;;;;;;;;;;5001639;28;20029;-75
2024/01/27 00:50:38;;;;;;;1.60;1.25;;;;;;;;;;5015780;28;20572;-75
2024/01/27 00:53:04;;;;;;;2.67;1.55;;;;;;;;;;5014721;28;20112;-75
2024/01/27 00:55:30;;;;;;;6.95;1.38;;;;;;;;;;5021832;28;20116;-75
2024/01/27 00:57:56;;;;;;;1.50;0.90;;;;;;;;;;5016795;28;20028;-74
2024/01/27 01:00:22;;;;;;;1.67;1.40;;;;;;;;;;5016608;28;20033;-75
2024/01/27 01:02:48;;;;;;;1.58;1.42;;;;;;;;;;5017077;28;20038;-75
2024/01/27 01:05:14;;;;;;;8.05;1.52;;;;;;;;;;5020274;28;20597;-75
2024/01/27 01:07:40;;;;;;;4.60;1.60;;;;;;;;;;5019936;28;20033;-75
2024/01/27 01:10:06;;;;;;;5.68;1.35;;;;;;;;;;5008069;28;20026;-75
2024/01/27 01:12:32;;;;;;;6.13;1.20;;;;;;;;;;5013579;28;20514;-74
2024/01/27 01:14:58;;;;;;;5.25;1.88;;;;;;;;;;5016250;28;20065;-75
2024/01/27 01:17:24;;;;;;;3.97;1.38;;;;;;;;;;5019229;28;20022;-75
2024/01/27 01:19:50;;;;;;;4.95;1.42;;;;;;;;;;5019929;28;20654;-75
2024/01/27 01:22:16;;;;;;;1.95;1.27;;;;;;;;;;5014069;28;20126;-74
2024/01/27 01:24:42;;;;;;;3.70;1.65;;;;;;;;;;5019823;28;20025;-75
2024/01/27 01:27:08;;;;;;;4.78;1.65;;;;;;;;;;5013564;28;20041;-75
2024/01/27 01:29:35;;;;;;;7.00;1.48;;;;;;;;;;5021806;28;20037;-75
2024/01/27 01:32:02;;;;;;;6.10;1.63;;;;;;;;;;5015670;28;20032;-74
2024/01/27 01:34:28;;;;;;;1.30;0.73;;;;;;;;;;5007890;28;20057;-75
2024/01/27 01:36:54;;;;;;;2.15;1.27;;;;;;;;;;5018544;28;20040;-74
2024/01/27 01:39:20;;;;;;;1.92;1.17;;;;;;;;;;5020261;28;20032;-75
2024/01/27 01:41:46;;;;;;;6.75;1.77;;;;;;;;;;5031887;28;20447;-74
2024/01/27 01:44:12;;;;;;;2.63;1.48;;;;;;;;;;5030790;28;20033;-77
2024/01/27 01:46:38;;;;;;;2.53;1.50;;;;;;;;;;5022623;28;20046;-75
2024/01/27 01:49:04;;;;;;;2.40;1.60;;;;;;;;;;5020792;28;20159;-76
2024/01/27 01:51:30;;;;;;;2.83;1.35;;;;;;;;;;5016620;28;20047;-75
2024/01/27 01:53:58;;;;;;;3.38;2.05;;;;;;;;;;4998954;28;20999;-75
2024/01/27 01:56:24;;;;;;;1.40;1.00;;;;;;;;;;5008470;28;20496;-75
2024/01/27 01:58:50;;;;;;;2.22;1.38;;;;;;;;;;5001407;28;20040;-77
2024/01/27 02:01:21;;;;;;;4.32;2.08;;;;;;;;;;5002996;28;20029;-76
2024/01/27 02:03:57;;;;;;;8.45;1.42;;;;;;;;;;5019357;28;20036;-76
2024/01/27 02:06:23;;;;;;;3.42;1.25;;;;;;;;;;5019774;28;20116;-75
2024/01/27 02:08:49;;;;;;;5.88;1.80;;;;;;;;;;5017858;28;20087;-75
2024/01/27 02:11:15;;;;;;;2.33;1.25;;;;;;;;;;5023454;28;20021;-75
2024/01/27 02:13:41;;;;;;;0.95;0.60;;;;;;;;;;5013092;28;20033;-75
2024/01/27 02:16:07;;;;;;;2.53;1.70;;;;;;;;;;5018798;28;20560;-74
2024/01/27 02:18:33;;;;;;;2.08;1.15;;;;;;;;;;5013495;28;20033;-74
2024/01/27 02:20:59;;;;;;;4.63;1.30;;;;;;;;;;5020525;28;20087;-74
2024/01/27 02:23:25;;;;;;;5.85;1.60;;;;;;;;;;5014235;28;20051;-74
2024/01/27 02:25:51;;;;;;;5.15;1.65;;;;;;;;;;5017373;28;20037;-75
2024/01/27 02:28:17;;;;;;;11.02;1.67;;;;;;;;;;5004322;28;20064;-75
2024/01/27 02:30:44;;;;;;;4.85;1.85;;;;;;;;;;5010550;28;20029;-73
2024/01/27 02:33:10;;;;;;;3.53;1.45;;;;;;;;;;5018147;28;20026;-73
2024/01/27 02:35:36;;;;;;;3.10;2.03;;;;;;;;;;5013654;28;20056;-74
2024/01/27 02:38:01;;;;;;;4.68;2.90;;;;;;;;;;5011898;28;21008;-73
2024/01/27 02:40:27;;;;;;;4.20;2.58;;;;;;;;;;5008652;28;20104;-74
2024/01/27 02:42:53;;;;;;;5.35;1.83;;;;;;;;;;5010904;28;21989;-74
2024/01/27 02:45:19;;;;;;;2.80;2.13;;;;;;;;;;5014529;28;20026;-75
2024/01/27 02:47:45;;;;;;;13.73;3.55;;;;;;;;;;5010328;28;20116;-74
2024/01/27 02:50:11;;;;;;;5.20;2.83;;;;;;;;;;5015907;28;20080;-74
2024/01/27 02:52:38;;;;;;;9.38;3.55;;;;;;;;;;5009615;28;20033;-74
2024/01/27 02:55:04;;;;;;;5.65;4.07;;;;;;;;;;4999888;28;20021;-74
2024/01/27 02:57:30;;;;;;;5.32;3.70;;;;;;;;;;5014336;28;20040;-74
2024/01/27 02:59:56;;;;;;;6.72;3.67;;;;;;;;;;5000744;28;20179;-75
2024/01/27 03:02:22;;;;;;;6.25;2.65;;;;;;;;;;5009174;28;20504;-75
2024/01/27 03:04:48;;;;;;;2.78;2.08;;;;;;;;;;5013594;28;20164;-75
2024/01/27 03:07:14;;;;;;;3.72;1.58;;;;;;;;;;5017084;28;20120;-75
2024/01/27 03:09:40;;;;;;;2.97;1.50;;;;;;;;;;5017704;28;20033;-75
2024/01/27 03:12:06;;;;;;;7.40;2.13;;;;;;;;;;5018253;28;20079;-75
2024/01/27 03:14:32;;;;;;;6.80;1.60;;;;;;;;;;5019116;28;20033;-75
2024/01/27 03:16:58;;;;;;;2.78;1.40;;;;;;;;;;5006727;28;20044;-75
2024/01/27 03:19:24;;;;;;;5.63;2.25;;;;;;;;;;5014684;28;20041;-75
2024/01/27 03:21:50;;;;;;;5.95;2.90;;;;;;;;;;5018457;28;20049;-74
2024/01/27 03:24:16;;;;;;;7.72;2.78;;;;;;;;;;5009423;28;20045;-73
2024/01/27 03:26:42;;;;;;;4.72;2.45;;;;;;;;;;5015653;28;20026;-74
2024/01/27 03:29:08;;;;;;;3.30;2.22;;;;;;;;;;5005692;28;20044;-75
2024/01/27 03:31:34;;;;;;;7.13;2.85;;;;;;;;;;5018012;28;20042;-75
2024/01/27 03:34:01;;;;;;;5.85;1.77;;;;;;;;;;5018794;28;20124;-74
2024/01/27 03:36:27;;;;;;;5.15;2.00;;;;;;;;;;5017185;28;20029;-74
2024/01/27 03:38:53;;;;;;;2.47;1.33;;;;;;;;;;5012414;28;20045;-74
2024/01/27 03:41:19;;;;;;;2.42;1.13;;;;;;;;;;5019621;28;20560;-74
2024/01/27 03:43:45;;;;;;;10.27;1.40;;;;;;;;;;5017518;28;20665;-75
2024/01/27 03:46:11;;;;;;;1.77;1.38;;;;;;;;;;5020623;28;20052;-74
2024/01/27 03:48:37;;;;;;;4.60;1.42;;;;;;;;;;5016903;28;20022;-74
2024/01/27 03:51:03;;;;;;;3.13;1.27;;;;;;;;;;5021436;28;20469;-74
2024/01/27 03:53:29;;;;;;;1.70;1.15;;;;;;;;;;5015835;28;20041;-74
2024/01/27 03:56:02;;;;;;;1.92;0.98;;;;;;;;;;5019533;28;20060;-74
2024/01/27 03:58:28;;;;;;;0.73;0.68;;;;;;;;;;5009380;28;20392;-74
2024/01/27 04:00:54;;;;;;;2.65;1.95;;;;;;;;;;5007477;28;20041;-73
2024/01/27 04:03:20;;;;;;;1.20;0.95;;;;;;;;;;5015671;28;20041;-74
2024/01/27 04:05:46;;;;;;;5.32;1.85;;;;;;;;;;5016428;28;20033;-74
2024/01/27 04:08:12;;;;;;;1.95;1.30;;;;;;;;;;5016910;28;20729;-73
2024/01/27 04:10:38;;;;;;;1.98;1.13;;;;;;;;;;5017393;28;20037;-74
2024/01/27 04:13:04;;;;;;;3.45;1.50;;;;;;;;;;5012636;28;20124;-74
2024/01/27 04:15:30;;;;;;;5.03;1.10;;;;;;;;;;5019837;28;20030;-74
2024/01/27 04:17:56;;;;;;;1.42;1.27;;;;;;;;;;5013501;28;20021;-75
2024/01/27 04:20:22;;;;;;;2.47;1.60;;;;;;;;;;5026753;28;20064;-76
2024/01/27 04:22:48;;;;;;;1.73;0.98;;;;;;;;;;5016951;28;20132;-76
2024/01/27 04:25:14;;;;;;;2.58;1.10;;;;;;;;;;5014277;28;20033;-75
2024/01/27 04:27:42;;;;;;;8.48;2.03;;;;;;;;;;5014059;28;21812;-74
2024/01/27 04:30:08;;;;;;;3.13;1.35;;;;;;;;;;5017529;28;20086;-74
2024/01/27 04:32:34;;;;;;;8.60;1.85;;;;;;;;;;5016323;28;20112;-74
2024/01/27 04:35:00;;;;;;;7.50;2.53;;;;;;;;;;5022574;28;20420;-75
2024/01/27 04:37:26;;;;;;;4.53;2.40;;;;;;;;;;5010253;28;20025;-75
2024/01/27 04:39:52;;;;;;;5.28;3.03;;;;;;;;;;5023375;28;20025;-75
2024/01/27 04:42:18;;;;;;;6.97;2.90;;;;;;;;;;5023999;28;20385;-75
2024/01/27 04:44:44;;;;;;;4.60;2.47;;;;;;;;;;5018482;28;20446;-75
2024/01/27 04:47:10;;;;;;;3.28;2.30;;;;;;;;;;5017221;28;20045;-74
2024/01/27 04:49:36;;;;;;;7.07;2.17;;;;;;;;;;5018795;28;20029;-75
2024/01/27 04:52:02;;;;;;;3.83;1.83;;;;;;;;;;5021200;28;20022;-74
2024/01/27 04:54:28;;;;;;;5.03;1.67;;;;;;;;;;5015463;28;20117;-75
2024/01/27 04:56:54;;;;;;;7.80;1.70;;;;;;;;;;5020161;28;20407;-74
2024/01/27 04:59:19;;;;;;;4.32;1.73;;;;;;;;;;5011270;28;20025;-74
2024/01/27 05:01:46;;;;;;;3.13;1.85;;;;;;;;;;5022031;28;20041;-74
2024/01/27 05:04:12;;;;;;;4.10;2.92;;;;;;;;;;5044188;28;20029;-74
2024/01/27 05:06:41;;;;;;;3.25;2.35;;;;;;;;;;5023402;28;20528;-76
2024/01/27 05:09:08;;;;;;;3.13;2.22;;;;;;;;;;5017096;28;20036;-76
2024/01/27 05:11:33;;;;;;;4.35;2.13;;;;;;;;;;5023303;28;20087;-75
2024/01/27 05:14:00;;;;;;;4.10;2.47;;;;;;;;;;5020170;28;20025;-76
2024/01/27 05:16:26;;;;;;;4.68;1.40;;;;;;;;;;5005207;28;20098;-75
2024/01/27 05:18:52;;;;;;;7.75;2.72;;;;;;;;;;5010152;28;20548;-76
2024/01/27 05:21:18;;;;;;;3.22;2.15;;;;;;;;;;5023305;28;20021;-75
2024/01/27 05:23:44;;;;;;;7.88;2.13;;;;;;;;;;5015890;28;20121;-76
2024/01/27 05:26:11;;;;;;;1.75;1.38;;;;;;;;;;5019548;28;20116;-76
2024/01/27 05:28:37;;;;;;;2.97;1.33;;;;;;;;;;5013228;28;20036;-75
2024/01/27 05:31:04;;;;;;;2.05;1.15;;;;;;;;;;5018036;28;20041;-76
2024/01/27 05:33:30;;;;;;;7.72;1.50;;;;;;;;;;5018452;28;20025;-75
2024/01/27 05:35:56;;;;;;;2.38;1.58;;;;;;;;;;5022326;28;20079;-75
2024/01/27 05:38:22;;;;;;;2.30;1.15;;;;;;;;;;5020614;28;20029;-76
2024/01/27 05:40:49;;;;;;;3.03;1.98;;;;;;;;;;5017096;28;20047;-76
2024/01/27 05:43:15;;;;;;;6.43;2.50;;;;;;;;;;5015537;28;20033;-75
2024/01/27 05:45:41;;;;;;;1.95;1.50;;;;;;;;;;5021242;28;20026;-75
2024/01/27 05:48:07;;;;;;;4.88;2.25;;;;;;;;;;5004296;28;20057;-75
2024/01/27 05:50:35;;;;;;;3.50;1.63;;;;;;;;;;5019136;28;20029;-75
2024/01/27 05:53:01;;;;;;;3.35;1.65;;;;;;;;;;5024155;28;20029;-76
2024/01/27 05:55:27;;;;;;;9.30;1.85;;;;;;;;;;5013765;28;20042;-74
2024/01/27 05:57:55;;;;;;;3.88;1.85;;;;;;;;;;5014063;28;20040;-76
2024/01/27 06:00:21;;;;;;;4.72;1.75;;;;;;;;;;5017272;28;20047;-75
2024/01/27 06:02:47;;;;;;;17.98;7.65;;;;;;;;;;5013823;28;20198;-75
2024/01/27 06:05:13;;;;;;;13.63;7.80;;;;;;;;;;5024720;28;20021;-76
2024/01/27 06:07:39;;;;;;;8.13;4.15;;;;;;;;;;5013739;28;20036;-75
2024/01/27 06:10:07;;;;;;;4.13;2.72;;;;;;;;;;5014249;28;20468;-76
2024/01/27 06:12:34;;;;;;;4.68;2.42;;;;;;;;;;5012052;28;20045;-76
2024/01/27 06:15:00;;;;;;;7.10;2.95;;;;;;;;;;5013034;28;20070;-76
2024/01/27 06:17:26;;;;;;;6.40;3.13;;;;;;;;;;5002257;28;21766;-76
2024/01/27 06:19:52;;;;;;;5.90;2.58;;;;;;;;;;5006027;28;21903;-74
2024/01/27 06:22:18;;;;;;;6.13;2.47;;;;;;;;;;5014365;28;20484;-74
2024/01/27 06:24:44;;;;;;;5.38;2.33;;;;;;;;;;5014980;28;20033;-74
2024/01/27 06:27:11;;;;;;;3.55;2.00;;;;;;;;;;5010398;28;20032;-75
2024/01/27 06:29:37;;;;;;;5.60;2.60;;;;;;;;;;5019894;28;20024;-74
2024/01/27 06:32:03;;;;;;;4.50;2.08;;;;;;;;;;5017037;28;20034;-73
2024/01/27 06:34:28;;;;;;;4.07;2.55;;;;;;;;;;5010002;28;21146;-75
2024/01/27 06:36:54;;;;;;;7.45;3.05;;;;;;;;;;5017815;28;20219;-75
2024/01/27 06:39:21;;;;;;;11.40;2.30;;;;;;;;;;5012086;28;20029;-74
2024/01/27 06:41:47;;;;;;;4.60;2.65;;;;;;;;;;5010533;28;20485;-74
2024/01/27 06:44:13;;;;;;;5.32;2.72;;;;;;;;;;5017086;28;20129;-75
2024/01/27 06:46:39;;;;;;;9.20;4.57;;;;;;;;;;5009799;28;20562;-75
2024/01/27 06:49:05;;;;;;;8.10;4.20;;;;;;;;;;5003379;28;20034;-75
2024/01/27 06:51:31;;;;;;;8.32;4.63;;;;;;;;;;5011460;28;20041;-75
2024/01/27 06:53:57;;;;;;;7.18;3.85;;;;;;;;;;5023630;28;20577;-75
2024/01/27 06:56:23;;;;;;;12.15;4.40;;;;;;;;;;5010969;28;20037;-75
2024/01/27 06:58:49;;;;;;;10.15;3.10;;;;;;;;;;5020585;28;20029;-75
2024/01/27 07:01:15;;;;;;;5.35;3.22;;;;;;;;;;5018539;28;20026;-75
2024/01/27 07:03:41;;;;;;;6.63;3.25;;;;;;;;;;5010673;28;20409;-75
2024/01/27 07:06:07;;;;;;;8.35;3.85;;;;;;;;;;5014663;28;20459;-75
2024/01/27 07:08:33;;;;;;;7.50;2.85;;;;;;;;;;5012774;28;20029;-75
2024/01/27 07:10:59;;;;;;;6.82;3.50;;;;;;;;;;5011700;28;20025;-75
2024/01/27 07:13:29;;;;;;;5.72;3.15;;;;;;;;;;5023881;28;20087;-74
2024/01/27 07:15:54;;;;;;;8.23;4.07;;;;;;;;;;5018575;28;20031;-75
2024/01/27 07:18:22;;;;;;;4.55;3.92;;;;;;;;;;5013735;28;20545;-76
2024/01/27 07:20:48;;;;;;;10.63;2.95;;;;;;;;;;5019587;28;20037;-76
2024/01/27 07:23:14;;;;;;;4.35;3.10;;;;;;;;;;5012853;28;20116;-76
2024/01/27 07:25:40;;;;;;;5.28;2.90;;;;;;;;;;5019758;28;20129;-75
2024/01/27 07:28:06;;;;;;;16.90;3.05;;;;;;;;;;5012602;28;20076;-75
2024/01/27 07:30:32;;;;;;;6.07;2.35;;;;;;;;;;5016689;28;20822;-75
2024/01/27 07:32:58;;;;;;;2.13;1.70;;;;;;;;;;5014991;28;20041;-76
2024/01/27 07:35:23;;;;;;;5.97;3.22;;;;;;;;;;5016276;28;20029;-75
2024/01/27 07:37:49;;;;;;;7.82;2.72;;;;;;;;;;5010106;28;20136;-75
2024/01/27 07:40:15;;;;;;;5.53;2.92;;;;;;;;;;4999378;28;20389;-76
2024/01/27 07:42:41;;;;;;;12.77;4.25;;;;;;;;;;5026264;28;20576;-75
2024/01/27 07:45:08;;;;;;;10.23;5.38;;;;;;;;;;5027472;28;20044;-75
2024/01/27 07:47:34;;;;;;;16.25;8.75;;;;;;;;;;5013410;28;20021;-75
2024/01/27 07:50:00;;;;;;;13.48;9.07;;;;;;;;;;5006877;28;20025;-75
2024/01/27 07:52:26;;;;;;;25.60;12.82;;;;;;;;;;5015763;28;20026;-76
2024/01/27 07:54:54;;;;;;;19.17;11.35;;;;;;;;;;5017296;28;20033;-75
2024/01/27 07:57:20;;;;;;;20.75;9.73;;;;;;;;;;5018078;28;20079;-75
2024/01/27 07:59:46;;;;;;;9.05;4.70;;;;;;;;;;5027237;28;20120;-74
2024/01/27 08:02:12;;;;;;;9.52;5.82;;;;;;;;;;5016904;28;20064;-75
2024/01/27 08:04:38;;;;;;;9.30;5.35;;;;;;;;;;5024993;28;20037;-76
2024/01/27 08:07:09;;;;;;;12.73;5.65;;;;;;;;;;5010362;28;22317;-75
2024/01/27 08:09:35;;;;;;;10.40;5.75;;;;;;;;;;4994502;28;20029;-76
2024/01/27 08:12:01;;;;;;;22.92;10.18;;;;;;;;;;5008099;28;20061;-75
2024/01/27 08:14:29;;;;;;;15.68;9.68;;;;;;;;;;5010209;28;20357;-75
2024/01/27 08:16:56;;;;;;;14.57;9.38;;;;;;;;;;5018034;28;20092;-75
2024/01/27 08:19:21;;;;;;;20.38;8.07;;;;;;;;;;5026125;28;20030;-75
2024/01/27 08:21:48;;;;;;;17.10;7.18;;;;;;;;;;5020017;28;20035;-75
2024/01/27 08:24:14;;;;;;;12.93;5.22;;;;;;;;;;5037566;28;20021;-75
2024/01/27 08:26:42;;;;;;;9.93;4.72;;;;;;;;;;5029841;28;20026;-75
2024/01/27 08:29:08;;;;;;;5.93;3.45;;;;;;;;;;5024344;28;20034;-78
2024/01/27 08:31:34;;;;;;;11.70;3.92;;;;;;;;;;5019898;28;20041;-77
2024/01/27 08:34:00;;;;;;;12.27;5.78;;;;;;;;;;5031085;28;20365;-76
2024/01/27 08:36:25;;;;;;;7.25;3.78;;;;;;;;;;5025566;28;20411;-77
2024/01/27 08:38:51;;;;;;;6.05;3.60;;;;;;;;;;5022327;28;20081;-77
2024/01/27 08:41:17;;;;;;;13.80;5.05;;;;;;;;;;5026382;28;20038;-77
2024/01/27 08:43:43;;;;;;;14.73;5.63;;;;;;;;;;5028852;28;20034;-76
2024/01/27 08:46:11;;;;;;;9.38;5.22;;;;;;;;;;5030546;28;20025;-77
2024/01/27 08:48:37;;;;;;;16.77;6.55;;;;;;;;;;5031446;28;20052;-77
2024/01/27 08:51:04;;;;;;;17.92;9.38;;;;;;;;;;5021218;28;20045;-76
2024/01/27 08:53:30;;;;;;;28.25;12.77;;;;;;;;;;5029824;28;20029;-78
2024/01/27 08:55:56;;;;;;;27.55;14.27;;;;;;;;;;5021307;28;20026;-77
2024/01/27 08:58:22;;;;;;;30.63;12.82;;;;;;;;;;5020920;28;20083;-78
2024/01/27 09:00:48;;;;;;;30.02;14.63;;;;;;;;;;5023253;28;21254;-76
2024/01/27 09:03:14;;;;;;;32.97;13.65;;;;;;;;;;5025311;28;20505;-77
2024/01/27 09:05:43;;;;;;;43.72;14.27;;;;;;;;;;5031210;28;20025;-77
2024/01/27 09:08:09;;;;;;;35.20;17.05;;;;;;;;;;5021125;28;20022;-77
2024/01/27 09:10:35;;;;;;;23.38;10.68;;;;;;;;;;5019768;28;20477;-77
2024/01/27 09:13:01;;;;;;;15.35;7.25;;;;;;;;;;5016937;28;21017;-78
2024/01/27 09:15:27;;;;;;;14.05;4.80;;;;;;;;;;5030316;28;20029;-77
2024/01/27 09:17:53;;;;;;;12.95;4.65;;;;;;;;;;5024866;28;20028;-78
2024/01/27 09:20:19;;;;;;;7.03;3.05;;;2.80;99.90;;;;;;5019045;28;20062;-77
2024/01/27 09:22:47;;;;;;;5.07;3.03;;;;;;;;;;5024460;28;20036;-78
2024/01/27 09:25:13;;;;;;;4.78;2.80;;;;;;;;;;5020160;28;20092;-78
2024/01/27 09:27:40;;;;;;;11.10;3.60;;;;;;;;;;5025306;28;20029;-77
2024/01/27 09:30:06;;;;;;;8.80;3.75;;;;;;;;;;5033364;28;20132;-77
2024/01/27 09:32:32;;;;;;;6.40;3.53;;;;;;;;;;5033304;28;20094;-77
2024/01/27 09:34:58;;;;;;;4.15;2.47;;;;;;;;;;5033674;28;20094;-77
2024/01/27 09:37:24;;;;;;;10.90;4.25;;;;;;;;;;5034686;28;20492;-77
2024/01/27 09:39:50;;;;;;;7.20;3.70;;;;;;;;;;5025586;28;20097;-77
2024/01/27 09:42:20;;;;;;;5.13;2.72;;;;;;;;;;5024484;28;20095;-78
2024/01/27 09:44:48;;;;;;;9.98;3.60;;;;;;;;;;5021991;28;20087;-77
2024/01/27 09:47:15;;;;;;;5.00;3.20;;;;;;;;;;5027699;28;20032;-78
2024/01/27 09:49:41;;;;;;;7.55;3.58;;;;;;;;;;5021788;28;20025;-79
2024/01/27 09:52:08;;;;;;;7.20;3.42;;;;;;;;;;5021953;28;20034;-77
2024/01/27 09:54:34;;;;;;;9.18;2.85;;;;;;;;;;5019092;28;20030;-78
2024/01/27 09:57:00;;;;;;;15.27;3.95;;;;;;;;;;5019996;28;20039;-78
2024/01/27 09:59:26;;;;;;;5.57;2.80;;;;;;;;;;5021036;28;20029;-76
2024/01/27 10:01:53;;;;;;;9.43;3.35;;;;;;;;;;5011187;28;20521;-77
2024/01/27 10:04:23;;;;;;;8.05;3.58;;;;;;;;;;5015877;28;20488;-77
2024/01/27 10:06:50;;;;;;;12.98;4.85;;;;;;;;;;5020482;28;20029;-77
2024/01/27 10:09:17;;;;;;;8.88;4.22;;;;;;;;;;5015049;28;20029;-76
2024/01/27 10:11:47;;;;;;;7.43;3.80;;;;;;;;;;5023542;28;20458;-76
2024/01/27 10:14:13;;;;;;;8.48;4.03;;;;;;;;;;5013193;28;20042;-76
2024/01/27 10:16:43;;;;;;;14.52;4.57;;;;;;;;;;5018853;28;20121;-76
2024/01/27 10:19:12;;;;;;;5.47;3.35;;;;;;;;;;5026761;28;20045;-77
2024/01/27 10:21:38;;;;;;;22.85;5.05;;;;;;;;;;5023121;28;20033;-77
2024/01/27 10:24:06;;;;;;;15.00;4.20;;;;;;;;;;5025400;28;20111;-76
2024/01/27 10:26:33;;;;;;;15.77;5.43;;;;;;;;;;5013451;28;20061;-75
2024/01/27 10:28:59;;;;;;;5.97;3.47;;;;;;;;;;5019273;28;20029;-75
2024/01/27 10:31:29;;;;;;;11.63;4.22;;;;;;;;;;5016915;28;20047;-76
2024/01/27 10:34:01;;;;;;;10.30;4.80;;;;;;;;;;5015029;28;20026;-76
2024/01/27 10:36:27;;;;;;;19.25;5.63;;;;;;;;;;5018269;28;20105;-76
2024/01/27 10:38:53;;;;;;;11.70;3.75;;;;;;;;;;5018843;28;20034;-76
2024/01/27 10:41:27;;;;;;;10.95;3.10;;;;;;;;;;5024370;28;20392;-75
2024/01/27 10:43:54;;;;;;;7.45;3.90;;;;;;;;;;5020583;28;20120;-76
2024/01/27 10:46:23;;;;;;;4.20;2.70;;;;;;;;;;5025460;28;20438;-75
2024/01/27 10:48:51;;;;;;;10.38;4.55;;;;;;;;;;5014434;28;20023;-77
2024/01/27 10:51:19;;;;;;;13.07;3.88;;;;;;;;;;5027082;28;20045;-77
2024/01/27 10:53:47;;;;;;;10.60;4.05;;;;;;;;;;5020062;28;20033;-78
2024/01/27 10:56:13;;;;;;;7.22;3.30;;;;;;;;;;5024607;28;20034;-79
2024/01/27 10:58:41;;;;;;;10.40;5.38;;;;;;;;;;5013802;28;20075;-77
2024/01/27 11:01:11;;;;;;;7.28;4.03;;;;;;;;;;5016912;28;20021;-79
2024/01/27 11:03:41;;;;;;;12.73;4.88;;;;;;;;;;5021035;28;20168;-78
2024/01/27 11:06:08;;;;;;;9.60;5.00;;;;;;;;;;5023201;28;20105;-78
2024/01/27 11:08:34;;;;;;;12.82;4.05;;;;;;;;;;5012470;28;20087;-78
2024/01/27 11:11:01;;;;;;;13.45;4.45;;;;;;;;;;5018076;28;20396;-77
2024/01/27 11:13:28;;;;;;;5.82;3.03;;;;;;;;;;5023360;28;20029;-79
2024/01/27 11:15:55;;;;;;;6.03;3.22;;;;;;;;;;5027473;28;20163;-78
2024/01/27 11:18:21;;;;;;;13.95;4.05;;;;;;;;;;5027118;28;20454;-79
2024/01/27 11:20:47;;;;;;;12.48;3.45;;;;;;;;;;5027396;28;20477;-78
2024/01/27 11:23:16;;;;;;;10.45;4.40;;;;;;;;;;5022453;28;20080;-78
2024/01/27 11:25:42;;;;;;;6.38;2.90;;;;;;;;;;5023612;28;20013;-79
2024/01/27 11:28:16;;;;;;;5.93;2.63;;;;;;;;;;5020916;28;20029;-77
2024/01/27 11:30:48;;;;;;;7.50;2.60;;;;;;;;;;5027084;28;20484;-79
2024/01/27 11:33:14;;;;;;;13.02;4.82;;;;;;;;;;5018863;28;20029;-78
2024/01/27 11:35:40;;;;;;;9.60;2.45;;;;;;;;;;5025534;28;20062;-79
2024/01/27 11:38:06;;;;;;;10.77;1.83;;;;;;;;;;5019816;28;20029;-78
2024/01/27 11:40:33;;;;;;;7.32;1.27;;;;;;;;;;5025862;28;20105;-79
2024/01/27 11:42:59;;;;;;;6.13;1.23;;;;;;;;;;5023674;28;20044;-78
2024/01/27 11:45:27;;;;;;;7.93;1.70;;;;;;;;;;5023754;28;20678;-78
2024/01/27 11:47:55;;;;;;;7.70;1.77;;;;;;;;;;5020507;28;20480;-78
2024/01/27 11:50:21;;;;;;;3.72;2.75;;;;;;;;;;5031323;28;20045;-78
2024/01/27 11:52:47;;;;;;;3.08;1.45;;;;;;;;;;5029870;28;20040;-79
2024/01/27 11:55:15;;;;;;;21.08;5.75;;;;;;;;;;5021549;28;20040;-78
2024/01/27 11:57:41;;;;;;;5.63;2.65;;;;;;;;;;5026334;28;20399;-79
2024/01/27 12:00:09;;;;;;;11.68;1.98;;;;;;;;;;5024914;28;20038;-78
2024/01/27 12:02:35;;;;;;;2.53;0.90;;;;;;;;;;5026233;28;20025;-78
2024/01/27 12:05:01;;;;;;;9.30;1.63;;;;;;;;;;5024100;28;20030;-78
2024/01/27 12:07:27;;;;;;;6.60;1.58;;;;;;;;;;5026799;28;20544;-78
2024/01/27 12:09:53;;;;;;;10.10;1.98;;;;;;;;;;5026403;28;20026;-78
2024/01/27 12:12:19;;;;;;;5.82;2.28;;;5.80;99.90;;;;;;5030300;28;20724;-78
2024/01/27 12:14:47;;;;;;;9.60;1.58;;;5.50;99.90;;;;;;5018230;28;20026;-79
2024/01/27 12:17:13;;;;;;;5.20;1.73;;;;;;;;;;5024806;28;20049;-78
2024/01/27 12:19:39;;;;;;;5.00;2.17;;;;;;;;;;5031021;28;20143;-77
2024/01/27 12:22:05;;;;;;;4.93;1.38;;;;;;;;;;5017991;28;20029;-76
2024/01/27 12:24:32;;;;;;;9.00;1.88;;;;;;;;;;5025331;28;20443;-78
2024/01/27 12:26:58;;;;;;;9.20;1.77;;;;;;;;;;5023658;28;20568;-78
2024/01/27 12:29:24;;;;;;;11.85;1.45;;;;;;;;;;5029245;28;20083;-77
2024/01/27 12:31:50;;;;;;;5.75;1.77;;;;;;;;;;5018981;28;20033;-78
2024/01/27 12:34:16;;;;;;;8.48;1.58;;;;;;;;;;5027167;28;20064;-78
2024/01/27 12:36:43;;;;;;;5.20;2.47;;;;;;;;;;5045171;28;20025;-76
2024/01/27 12:39:09;;;;;;;16.67;6.57;;;;;;;;;;5051652;28;20029;-76
2024/01/27 12:41:35;;;;;;;14.52;3.97;;;;;;;;;;5032098;28;20042;-79
2024/01/27 12:44:01;;;;;;;5.95;2.60;;;;;;;;;;5029523;28;20033;-79
2024/01/27 12:46:28;;;;;;;3.90;1.63;;;;;;;;;;5023889;28;20025;-78
2024/01/27 12:48:54;;;;;;;10.77;2.83;;;;;;;;;;5026432;28;20030;-79
2024/01/27 12:51:20;;;;;;;22.90;6.75;;;;;;;;;;5029758;28;20028;-79
2024/01/27 12:53:47;;;;;;;17.52;6.47;;;;;;;;;;5027143;28;20101;-80
2024/01/27 12:56:14;;;;;;;11.98;2.85;;;;;;;;;;5029545;28;20078;-79
2024/01/27 12:58:41;;;;;;;21.55;7.80;;;6.10;99.90;;;;;;5021759;28;20439;-79
2024/01/27 13:01:07;;;;;;;27.90;9.25;;;;;;;;;;5027400;28;20411;-79
2024/01/27 13:03:33;;;;;;;10.07;4.65;;;;;;;;;;5020563;28;20037;-78
2024/01/27 13:05:59;;;;;;;7.30;2.75;;;;;;;;;;5028840;28;20021;-79
2024/01/27 13:08:25;;;;;;;9.60;4.40;;;;;;;;;;5023837;28;20088;-78
2024/01/27 13:10:51;;;;;;;10.18;5.38;;;;;;;;;;5028552;28;20566;-78
2024/01/27 13:13:17;;;;;;;9.02;3.17;;;;;;;;;;5020653;28;20117;-78
2024/01/27 13:15:43;;;;;;;8.07;3.10;;;;;;;;;;5019093;28;20025;-78
2024/01/27 13:18:13;;;;;;;7.20;1.60;;;;;;;;;;5010285;28;20399;-77
2024/01/27 13:20:40;;;;;;;5.80;1.42;;;;;;;;;;5016657;28;20260;-78
2024/01/27 13:23:06;;;;;;;6.75;1.30;;;;;;;;;;5023426;28;20107;-79
2024/01/27 13:25:32;;;;;;;6.63;1.23;;;;;;;;;;5014320;28;20029;-79
2024/01/27 13:27:58;;;;;;;3.22;1.15;;;;;;;;;;5025474;28;20037;-77
2024/01/27 13:30:25;;;;;;;1.88;0.63;;;;;;;;;;5017596;28;20038;-77
2024/01/27 13:32:51;;;;;;;5.70;1.00;;;;;;;;;;5019837;28;20179;-78
2024/01/27 13:35:17;;;;;;;3.58;1.33;;;;;;;;;;5030039;28;20178;-79
2024/01/27 13:37:43;;;;;;;6.47;1.00;;;;;;;;;;5027661;28;20025;-77
2024/01/27 13:40:09;;;;;;;4.88;1.65;;;;;;;;;;5028159;28;20019;-78
2024/01/27 13:42:36;;;;;;;4.75;1.83;;;;;;;;;;5014950;28;20145;-76
2024/01/27 13:45:02;;;;;;;6.22;2.05;;;;;;;;;;5024670;28;20030;-78
2024/01/27 13:47:28;;;;;;;12.48;2.00;;;;;;;;;;5020867;28;20036;-77
2024/01/27 13:49:54;;;;;;;4.18;1.77;;;;;;;;;;5031357;28;20387;-77
2024/01/27 13:52:20;;;;;;;3.17;1.75;;;;;;;;;;5010818;28;20025;-78
2024/01/27 13:54:46;;;;;;;5.63;1.85;;;;;;;;;;5026950;28;20608;-77
2024/01/27 13:57:12;;;;;;;15.88;4.57;;;;;;;;;;5018839;28;20021;-78
2024/01/27 13:59:38;;;;;;;8.20;2.05;;;;;;;;;;5021854;28;20033;-77
2024/01/27 14:02:04;;;;;;;4.60;1.17;;;;;;;;;;5023562;28;20038;-77
2024/01/27 14:04:30;;;;;;;5.50;1.30;;;;;;;;;;5027176;28;20742;-76
2024/01/27 14:06:56;;;;;;;9.43;1.23;;;;;;;;;;5020960;28;20095;-77
2024/01/27 14:09:27;;;;;;;3.53;1.13;;;;;;;;;;5027824;28;20025;-77
2024/01/27 14:11:53;;;;;;;4.65;1.27;;;;;;;;;;5020421;28;20076;-79
2024/01/27 14:14:19;;;;;;;6.78;1.45;;;;;;;;;;5022026;28;24173;-77
2024/01/27 14:16:45;;;;;;;6.32;2.35;;;;;;;;;;5022683;28;20052;-77
2024/01/27 14:19:11;;;;;;;2.28;1.25;;;;;;;;;;5026486;28;20029;-77
2024/01/27 14:21:38;;;;;;;32.25;8.52;;;;;;;;;;5022790;28;20486;-78
2024/01/27 14:24:06;;;;;;;41.05;10.68;;;;;;;;;;5020979;28;20501;-79
2024/01/27 14:26:32;;;;;;;24.05;8.82;;;;;;;;;;5020636;28;20036;-79
2024/01/27 14:28:58;;;;;;;11.10;4.15;;;;;;;;;;5025257;28;20496;-79
2024/01/27 14:31:24;;;;;;;10.07;2.85;;;;;;;;;;5011917;28;20476;-79
2024/01/27 14:33:50;;;;;;;8.65;3.05;;;;;;;;;;5013777;28;20164;-76